sensor_id;sensor_type;location;lat;lon;timestamp;pressure;altitude;pressure_sealevel;temperature;humidity
56052;BME280;41919;42.648;23.384;2022-12-11T00:00:40;92546.38;;;11.85;87.91
56052;BME280;41919;42.648;23.384;2022-12-11T00:03:05;92555.47;;;11.57;89.19
56052;BME280;41919;42.648;23.384;2022-12-11T00:05:31;92528.78;;;11.50;89.37
56052;BME280;41919;42.648;23.384;2022-12-11T00:07:56;92554.81;;;11.09;91.70
56052;BME280;41919;42.648;23.384;2022-12-11T00:10:22;92532.09;;;11.14;92.11
56052;BME280;41919;42.648;23.384;2022-12-11T00:12:48;92551.72;;;11.27;91.66
56052;BME280;41919;42.648;23.384;2022-12-11T00:15:13;92494.25;;;11.37;90.82
56052;BME280;41919;42.648;23.384;2022-12-11T00:17:38;92532.41;;;11.38;91.03
56052;BME280;41919;42.648;23.384;2022-12-11T00:20:04;92542.91;;;11.54;90.23
56052;BME280;41919;42.648;23.384;2022-12-11T00:22:29;92517.81;;;11.58;90.04
56052;BME280;41919;42.648;23.384;2022-12-11T00:24:55;92522.03;;;11.64;89.75
56052;BME280;41919;42.648;23.384;2022-12-11T00:27:20;92520.44;;;11.63;89.75
56052;BME280;41919;42.648;23.384;2022-12-11T00:29:45;92522.25;;;11.57;90.34
56052;BME280;41919;42.648;23.384;2022-12-11T00:32:11;92503.66;;;11.44;91.37
56052;BME280;41919;42.648;23.384;2022-12-11T00:34:36;92522.75;;;11.39;92.13
56052;BME280;41919;42.648;23.384;2022-12-11T00:37:02;92510.44;;;11.34;92.80
56052;BME280;41919;42.648;23.384;2022-12-11T00:39:27;92498.16;;;11.40;92.22
56052;BME280;41919;42.648;23.384;2022-12-11T00:41:52;92517.75;;;11.32;92.53
56052;BME280;41919;42.648;23.384;2022-12-11T00:44:18;92503.59;;;11.13;94.63
56052;BME280;41919;42.648;23.384;2022-12-11T00:46:43;92493.13;;;11.13;94.17
56052;BME280;41919;42.648;23.384;2022-12-11T00:49:08;92537.31;;;11.14;94.55
56052;BME280;41919;42.648;23.384;2022-12-11T00:51:33;92497.28;;;11.04;95.30
56052;BME280;41919;42.648;23.384;2022-12-11T00:53:59;92501.72;;;11.03;95.98
56052;BME280;41919;42.648;23.384;2022-12-11T00:56:24;92502.50;;;11.04;95.98
56052;BME280;41919;42.648;23.384;2022-12-11T00:58:49;92518.63;;;10.85;98.00
56052;BME280;41919;42.648;23.384;2022-12-11T01:01:16;92493.09;;;10.97;97.05
56052;BME280;41919;42.648;23.384;2022-12-11T01:03:42;92523.38;;;10.98;96.72
56052;BME280;41919;42.648;23.384;2022-12-11T01:06:11;92507.94;;;10.87;98.13
56052;BME280;41919;42.648;23.384;2022-12-11T01:08:37;92535.84;;;10.81;97.78
56052;BME280;41919;42.648;23.384;2022-12-11T01:11:03;92526.53;;;11.01;97.68
56052;BME280;41919;42.648;23.384;2022-12-11T01:13:29;92527.63;;;11.10;96.71
56052;BME280;41919;42.648;23.384;2022-12-11T01:15:54;92519.56;;;11.16;96.17
56052;BME280;41919;42.648;23.384;2022-12-11T01:18:19;92514.63;;;11.30;95.55
56052;BME280;41919;42.648;23.384;2022-12-11T01:20:45;92485.25;;;11.08;95.93
56052;BME280;41919;42.648;23.384;2022-12-11T01:23:11;92541.78;;;11.24;95.45
56052;BME280;41919;42.648;23.384;2022-12-11T01:25:37;92536.56;;;11.29;95.36
56052;BME280;41919;42.648;23.384;2022-12-11T01:28:02;92557.75;;;11.28;95.52
56052;BME280;41919;42.648;23.384;2022-12-11T01:30:27;92550.19;;;11.31;95.10
56052;BME280;41919;42.648;23.384;2022-12-11T01:32:53;92535.56;;;11.41;94.76
56052;BME280;41919;42.648;23.384;2022-12-11T01:35:18;92551.22;;;11.30;96.38
56052;BME280;41919;42.648;23.384;2022-12-11T01:37:44;92515.66;;;11.34;96.71
56052;BME280;41919;42.648;23.384;2022-12-11T01:40:11;92519.34;;;11.38;95.73
56052;BME280;41919;42.648;23.384;2022-12-11T01:42:37;92515.69;;;11.45;96.45
56052;BME280;41919;42.648;23.384;2022-12-11T01:47:49;92489.81;;;11.64;96.34
56052;BME280;41919;42.648;23.384;2022-12-11T01:50:16;92519.09;;;11.50;98.75
56052;BME280;41919;42.648;23.384;2022-12-11T01:52:42;92512.78;;;11.31;100.00
56052;BME280;41919;42.648;23.384;2022-12-11T01:55:08;92498.94;;;11.30;99.58
56052;BME280;41919;42.648;23.384;2022-12-11T01:57:35;92474.59;;;11.14;100.00
56052;BME280;41919;42.648;23.384;2022-12-11T02:00:01;92523.13;;;10.95;100.00
56052;BME280;41919;42.648;23.384;2022-12-11T02:02:27;92552.63;;;10.90;100.00
56052;BME280;41919;42.648;23.384;2022-12-11T02:04:53;92536.91;;;10.85;100.00
56052;BME280;41919;42.648;23.384;2022-12-11T02:07:19;92536.97;;;11.01;100.00
56052;BME280;41919;42.648;23.384;2022-12-11T02:09:45;92521.84;;;11.08;100.00
56052;BME280;41919;42.648;23.384;2022-12-11T02:30:32;92477.00;;;11.72;96.75
56052;BME280;41919;42.648;23.384;2022-12-11T02:33:01;92452.41;;;11.78;96.35
56052;BME280;41919;42.648;23.384;2022-12-11T02:35:33;92435.16;;;11.98;95.90
56052;BME280;41919;42.648;23.384;2022-12-11T02:38:02;92436.47;;;12.01;95.35
56052;BME280;41919;42.648;23.384;2022-12-11T02:40:30;92453.47;;;11.98;94.96
56052;BME280;41919;42.648;23.384;2022-12-11T02:42:57;92449.03;;;11.99;92.92
56052;BME280;41919;42.648;23.384;2022-12-11T02:45:25;92449.56;;;12.01;92.95
56052;BME280;41919;42.648;23.384;2022-12-11T02:47:52;92455.56;;;12.16;92.35
56052;BME280;41919;42.648;23.384;2022-12-11T02:50:18;92457.13;;;12.23;89.66
56052;BME280;41919;42.648;23.384;2022-12-11T02:52:44;92463.91;;;12.39;89.92
56052;BME280;41919;42.648;23.384;2022-12-11T02:55:11;92452.88;;;12.42;90.81
56052;BME280;41919;42.648;23.384;2022-12-11T02:57:41;92456.00;;;12.54;91.35
56052;BME280;41919;42.648;23.384;2022-12-11T03:00:09;92448.66;;;12.51;90.06
56052;BME280;41919;42.648;23.384;2022-12-11T03:02:35;92464.31;;;12.72;84.49
56052;BME280;41919;42.648;23.384;2022-12-11T03:05:00;92469.50;;;12.92;82.05
56052;BME280;41919;42.648;23.384;2022-12-11T03:07:30;92468.38;;;13.04;83.39
56052;BME280;41919;42.648;23.384;2022-12-11T03:09:56;92461.78;;;13.17;84.33
56052;BME280;41919;42.648;23.384;2022-12-11T03:12:28;92467.25;;;13.20;81.55
56052;BME280;41919;42.648;23.384;2022-12-11T03:14:56;92470.13;;;13.24;82.16
56052;BME280;41919;42.648;23.384;2022-12-11T03:17:29;92450.19;;;13.33;83.28
56052;BME280;41919;42.648;23.384;2022-12-11T03:22:22;92432.06;;;13.26;80.42
56052;BME280;41919;42.648;23.384;2022-12-11T03:24:50;92432.09;;;13.31;81.02
56052;BME280;41919;42.648;23.384;2022-12-11T03:29:46;92441.97;;;13.45;79.22
56052;BME280;41919;42.648;23.384;2022-12-11T03:32:15;92452.72;;;13.43;77.56
56052;BME280;41919;42.648;23.384;2022-12-11T03:34:45;92464.50;;;13.46;78.86
56052;BME280;41919;42.648;23.384;2022-12-11T03:37:13;92463.47;;;13.47;77.39
56052;BME280;41919;42.648;23.384;2022-12-11T03:39:41;92466.09;;;13.47;77.35
56052;BME280;41919;42.648;23.384;2022-12-11T03:42:09;92465.75;;;13.59;76.98
56052;BME280;41919;42.648;23.384;2022-12-11T03:44:35;92436.22;;;13.38;77.10
56052;BME280;41919;42.648;23.384;2022-12-11T03:47:02;92483.50;;;13.72;76.85
56052;BME280;41919;42.648;23.384;2022-12-11T03:49:30;92484.22;;;13.83;73.16
56052;BME280;41919;42.648;23.384;2022-12-11T03:51:58;92478.88;;;13.93;72.01
56052;BME280;41919;42.648;23.384;2022-12-11T03:54:24;92484.09;;;13.98;74.72
56052;BME280;41919;42.648;23.384;2022-12-11T03:56:50;92487.69;;;14.07;74.99
56052;BME280;41919;42.648;23.384;2022-12-11T03:59:18;92504.19;;;14.13;72.83
56052;BME280;41919;42.648;23.384;2022-12-11T04:01:43;92520.00;;;14.08;72.80
56052;BME280;41919;42.648;23.384;2022-12-11T04:04:08;92518.91;;;14.14;70.63
56052;BME280;41919;42.648;23.384;2022-12-11T04:06:34;92510.19;;;14.19;70.81
56052;BME280;41919;42.648;23.384;2022-12-11T04:08:59;92500.25;;;14.16;69.94
56052;BME280;41919;42.648;23.384;2022-12-11T04:11:24;92484.16;;;14.22;67.96
56052;BME280;41919;42.648;23.384;2022-12-11T04:14:02;92496.63;;;14.41;67.07
56052;BME280;41919;42.648;23.384;2022-12-11T04:16:46;92519.38;;;14.50;67.48
56052;BME280;41919;42.648;23.384;2022-12-11T04:19:11;92525.13;;;14.58;67.52
56052;BME280;41919;42.648;23.384;2022-12-11T04:21:55;92514.88;;;14.56;66.95
56052;BME280;41919;42.648;23.384;2022-12-11T04:24:39;92513.53;;;14.59;64.81
56052;BME280;41919;42.648;23.384;2022-12-11T04:27:04;92527.09;;;14.71;65.58
56052;BME280;41919;42.648;23.384;2022-12-11T04:29:29;92539.19;;;14.72;65.36
56052;BME280;41919;42.648;23.384;2022-12-11T04:31:55;92543.66;;;14.72;66.65
56052;BME280;41919;42.648;23.384;2022-12-11T04:34:20;92538.13;;;14.73;66.63
56052;BME280;41919;42.648;23.384;2022-12-11T04:36:45;92550.03;;;14.65;67.07
56052;BME280;41919;42.648;23.384;2022-12-11T04:39:11;92560.84;;;14.59;67.50
56052;BME280;41919;42.648;23.384;2022-12-11T04:41:36;92561.13;;;14.57;67.84
56052;BME280;41919;42.648;23.384;2022-12-11T04:44:03;92560.69;;;14.45;67.82
56052;BME280;41919;42.648;23.384;2022-12-11T04:46:28;92542.03;;;14.46;68.11
56052;BME280;41919;42.648;23.384;2022-12-11T04:48:53;92557.31;;;14.39;68.30
56052;BME280;41919;42.648;23.384;2022-12-11T04:51:18;92560.72;;;14.40;68.36
56052;BME280;41919;42.648;23.384;2022-12-11T04:53:44;92559.97;;;14.34;68.95
56052;BME280;41919;42.648;23.384;2022-12-11T04:56:10;92556.78;;;14.42;64.91
56052;BME280;41919;42.648;23.384;2022-12-11T04:58:36;92551.44;;;14.52;64.23
56052;BME280;41919;42.648;23.384;2022-12-11T05:01:11;92572.44;;;14.52;66.88
56052;BME280;41919;42.648;23.384;2022-12-11T05:03:37;92572.78;;;14.46;66.95
56052;BME280;41919;42.648;23.384;2022-12-11T05:06:02;92571.38;;;14.59;64.35
56052;BME280;41919;42.648;23.384;2022-12-11T05:08:28;92589.78;;;14.59;65.38
56052;BME280;41919;42.648;23.384;2022-12-11T05:10:54;92578.75;;;14.57;66.01
56052;BME280;41919;42.648;23.384;2022-12-11T05:13:19;92570.31;;;14.55;65.15
56052;BME280;41919;42.648;23.384;2022-12-11T05:15:45;92578.44;;;14.63;62.65
56052;BME280;41919;42.648;23.384;2022-12-11T05:18:10;92597.91;;;14.62;61.56
56052;BME280;41919;42.648;23.384;2022-12-11T05:20:35;92582.97;;;14.52;58.35
56052;BME280;41919;42.648;23.384;2022-12-11T05:23:00;92578.69;;;14.67;58.29
56052;BME280;41919;42.648;23.384;2022-12-11T05:25:26;92600.06;;;14.84;57.12
56052;BME280;41919;42.648;23.384;2022-12-11T05:27:51;92596.84;;;14.93;57.63
56052;BME280;41919;42.648;23.384;2022-12-11T05:30:16;92598.84;;;15.01;57.56
56052;BME280;41919;42.648;23.384;2022-12-11T05:32:41;92609.59;;;15.04;57.02
56052;BME280;41919;42.648;23.384;2022-12-11T05:35:07;92594.00;;;15.13;57.02
56052;BME280;41919;42.648;23.384;2022-12-11T05:37:32;92589.69;;;15.22;56.81
56052;BME280;41919;42.648;23.384;2022-12-11T05:39:58;92568.63;;;15.22;55.90
56052;BME280;41919;42.648;23.384;2022-12-11T05:42:23;92570.06;;;15.34;54.81
56052;BME280;41919;42.648;23.384;2022-12-11T05:44:49;92565.72;;;15.48;53.23
56052;BME280;41919;42.648;23.384;2022-12-11T05:47:14;92566.25;;;15.45;53.88
56052;BME280;41919;42.648;23.384;2022-12-11T05:49:40;92544.00;;;15.56;53.49
56052;BME280;41919;42.648;23.384;2022-12-11T05:52:05;92588.06;;;15.69;52.80
56052;BME280;41919;42.648;23.384;2022-12-11T05:54:31;92561.28;;;15.86;50.62
56052;BME280;41919;42.648;23.384;2022-12-11T05:56:56;92551.38;;;15.97;51.44
56052;BME280;41919;42.648;23.384;2022-12-11T05:59:21;92550.69;;;15.92;53.18
56052;BME280;41919;42.648;23.384;2022-12-11T06:01:46;92530.75;;;15.85;53.92
56052;BME280;41919;42.648;23.384;2022-12-11T06:04:12;92531.53;;;15.86;53.37
56052;BME280;41919;42.648;23.384;2022-12-11T06:06:37;92541.59;;;15.84;52.81
56052;BME280;41919;42.648;23.384;2022-12-11T06:09:04;92548.03;;;15.73;54.14
56052;BME280;41919;42.648;23.384;2022-12-11T06:11:31;92558.94;;;15.85;53.22
56052;BME280;41919;42.648;23.384;2022-12-11T06:13:56;92556.09;;;15.81;53.38
56052;BME280;41919;42.648;23.384;2022-12-11T06:16:22;92528.91;;;15.86;53.16
56052;BME280;41919;42.648;23.384;2022-12-11T06:18:48;92550.59;;;15.78;53.29
56052;BME280;41919;42.648;23.384;2022-12-11T06:23:39;92568.25;;;15.96;53.49
56052;BME280;41919;42.648;23.384;2022-12-11T06:26:05;92575.09;;;15.97;52.78
56052;BME280;41919;42.648;23.384;2022-12-11T06:28:31;92571.47;;;15.93;51.88
56052;BME280;41919;42.648;23.384;2022-12-11T06:30:59;92592.72;;;15.78;52.49
56052;BME280;41919;42.648;23.384;2022-12-11T06:33:25;92603.22;;;15.83;53.69
56052;BME280;41919;42.648;23.384;2022-12-11T06:35:50;92610.66;;;15.76;53.07
56052;BME280;41919;42.648;23.384;2022-12-11T06:38:16;92595.47;;;15.92;52.93
56052;BME280;41919;42.648;23.384;2022-12-11T06:40:42;92605.44;;;15.95;53.13
56052;BME280;41919;42.648;23.384;2022-12-11T06:43:07;92592.31;;;15.90;53.54
56052;BME280;41919;42.648;23.384;2022-12-11T06:45:32;92575.44;;;16.10;49.07
56052;BME280;41919;42.648;23.384;2022-12-11T06:47:57;92607.41;;;16.22;49.61
56052;BME280;41919;42.648;23.384;2022-12-11T06:50:23;92612.56;;;16.32;49.44
56052;BME280;41919;42.648;23.384;2022-12-11T06:52:48;92584.44;;;16.41;48.90
56052;BME280;41919;42.648;23.384;2022-12-11T06:55:13;92601.81;;;16.61;48.53
56052;BME280;41919;42.648;23.384;2022-12-11T06:57:39;92613.53;;;16.55;51.47
56052;BME280;41919;42.648;23.384;2022-12-11T07:00:04;92610.25;;;16.25;52.67
56052;BME280;41919;42.648;23.384;2022-12-11T07:02:30;92616.63;;;16.24;51.68
56052;BME280;41919;42.648;23.384;2022-12-11T07:04:55;92623.09;;;16.32;50.92
56052;BME280;41919;42.648;23.384;2022-12-11T07:07:20;92617.06;;;16.64;49.75
56052;BME280;41919;42.648;23.384;2022-12-11T07:09:45;92637.63;;;16.81;51.19
56052;BME280;41919;42.648;23.384;2022-12-11T07:12:11;92618.66;;;16.46;52.32
56052;BME280;41919;42.648;23.384;2022-12-11T07:14:36;92609.72;;;16.61;51.95
56052;BME280;41919;42.648;23.384;2022-12-11T07:17:01;92613.34;;;16.84;51.78
56052;BME280;41919;42.648;23.384;2022-12-11T07:19:27;92611.13;;;17.05;52.20
56052;BME280;41919;42.648;23.384;2022-12-11T07:21:52;92595.72;;;17.27;51.69
56052;BME280;41919;42.648;23.384;2022-12-11T07:24:18;92613.69;;;17.11;50.35
56052;BME280;41919;42.648;23.384;2022-12-11T07:26:43;92647.47;;;16.95;50.96
56052;BME280;41919;42.648;23.384;2022-12-11T07:29:08;92649.13;;;16.72;52.05
56052;BME280;41919;42.648;23.384;2022-12-11T07:31:34;92633.63;;;16.51;53.56
56052;BME280;41919;42.648;23.384;2022-12-11T07:34:00;92630.41;;;16.35;54.89
56052;BME280;41919;42.648;23.384;2022-12-11T07:36:26;92645.94;;;16.18;54.62
56052;BME280;41919;42.648;23.384;2022-12-11T07:38:52;92641.59;;;16.08;54.70
56052;BME280;41919;42.648;23.384;2022-12-11T07:41:17;92637.47;;;16.02;54.04
56052;BME280;41919;42.648;23.384;2022-12-11T07:43:43;92648.34;;;15.95;55.14
56052;BME280;41919;42.648;23.384;2022-12-11T07:46:10;92668.41;;;15.91;54.18
56052;BME280;41919;42.648;23.384;2022-12-11T07:48:36;92655.66;;;16.03;54.25
56052;BME280;41919;42.648;23.384;2022-12-11T07:51:09;92660.28;;;16.12;54.24
56052;BME280;41919;42.648;23.384;2022-12-11T07:53:34;92669.38;;;16.19;53.72
56052;BME280;41919;42.648;23.384;2022-12-11T07:55:59;92673.28;;;16.22;54.26
56052;BME280;41919;42.648;23.384;2022-12-11T07:58:25;92665.19;;;16.37;53.22
56052;BME280;41919;42.648;23.384;2022-12-11T08:00:50;92662.41;;;16.48;51.73
56052;BME280;41919;42.648;23.384;2022-12-11T08:03:16;92660.00;;;16.32;53.24
56052;BME280;41919;42.648;23.384;2022-12-11T08:05:45;92686.63;;;16.31;52.32
56052;BME280;41919;42.648;23.384;2022-12-11T08:08:11;92680.78;;;16.34;52.34
56052;BME280;41919;42.648;23.384;2022-12-11T08:10:37;92681.00;;;16.37;53.65
56052;BME280;41919;42.648;23.384;2022-12-11T08:13:02;92689.00;;;16.32;53.98
56052;BME280;41919;42.648;23.384;2022-12-11T08:15:27;92686.28;;;16.37;53.53
56052;BME280;41919;42.648;23.384;2022-12-11T08:17:52;92685.56;;;16.32;54.67
56052;BME280;41919;42.648;23.384;2022-12-11T08:20:18;92675.66;;;16.23;54.86
56052;BME280;41919;42.648;23.384;2022-12-11T08:22:43;92672.38;;;16.13;56.31
56052;BME280;41919;42.648;23.384;2022-12-11T08:25:08;92678.97;;;15.91;56.73
56052;BME280;41919;42.648;23.384;2022-12-11T08:27:34;92664.16;;;15.95;55.57
56052;BME280;41919;42.648;23.384;2022-12-11T08:29:59;92664.81;;;16.06;55.51
56052;BME280;41919;42.648;23.384;2022-12-11T08:32:24;92670.38;;;16.04;56.41
56052;BME280;41919;42.648;23.384;2022-12-11T08:34:50;92665.03;;;16.10;56.05
56052;BME280;41919;42.648;23.384;2022-12-11T08:37:15;92665.31;;;16.08;54.97
56052;BME280;41919;42.648;23.384;2022-12-11T08:39:41;92667.41;;;16.11;54.71
56052;BME280;41919;42.648;23.384;2022-12-11T08:42:07;92650.88;;;16.05;56.01
56052;BME280;41919;42.648;23.384;2022-12-11T08:44:32;92653.50;;;16.05;54.95
56052;BME280;41919;42.648;23.384;2022-12-11T08:46:57;92652.50;;;16.01;55.16
56052;BME280;41919;42.648;23.384;2022-12-11T08:49:23;92672.50;;;16.02;54.49
56052;BME280;41919;42.648;23.384;2022-12-11T08:51:48;92637.59;;;16.11;54.44
56052;BME280;41919;42.648;23.384;2022-12-11T08:54:13;92647.31;;;16.15;54.42
56052;BME280;41919;42.648;23.384;2022-12-11T08:56:39;92635.78;;;16.30;54.55
56052;BME280;41919;42.648;23.384;2022-12-11T08:59:04;92646.22;;;16.35;55.05
56052;BME280;41919;42.648;23.384;2022-12-11T09:01:30;92658.78;;;16.43;55.54
56052;BME280;41919;42.648;23.384;2022-12-11T09:03:55;92651.72;;;16.39;55.57
56052;BME280;41919;42.648;23.384;2022-12-11T09:06:22;92650.88;;;16.43;55.09
56052;BME280;41919;42.648;23.384;2022-12-11T09:08:48;92647.66;;;16.46;55.58
56052;BME280;41919;42.648;23.384;2022-12-11T09:11:16;92644.38;;;16.55;55.71
56052;BME280;41919;42.648;23.384;2022-12-11T09:13:41;92644.06;;;16.56;55.63
56052;BME280;41919;42.648;23.384;2022-12-11T09:16:08;92630.53;;;16.63;54.70
56052;BME280;41919;42.648;23.384;2022-12-11T09:18:34;92627.81;;;16.68;54.27
56052;BME280;41919;42.648;23.384;2022-12-11T09:21:00;92627.84;;;16.49;54.80
56052;BME280;41919;42.648;23.384;2022-12-11T09:23:26;92622.13;;;16.61;55.18
56052;BME280;41919;42.648;23.384;2022-12-11T09:25:51;92626.56;;;16.46;54.07
56052;BME280;41919;42.648;23.384;2022-12-11T09:28:16;92617.44;;;16.39;54.62
56052;BME280;41919;42.648;23.384;2022-12-11T09:30:42;92634.69;;;16.31;54.12
56052;BME280;41919;42.648;23.384;2022-12-11T09:33:07;92633.28;;;16.20;54.45
56052;BME280;41919;42.648;23.384;2022-12-11T09:35:32;92633.41;;;16.10;55.39
56052;BME280;41919;42.648;23.384;2022-12-11T09:37:58;92626.00;;;16.12;55.32
56052;BME280;41919;42.648;23.384;2022-12-11T09:40:23;92624.53;;;16.24;55.92
56052;BME280;41919;42.648;23.384;2022-12-11T09:45:16;92602.16;;;16.22;54.69
56052;BME280;41919;42.648;23.384;2022-12-11T09:47:43;92615.09;;;16.18;54.31
56052;BME280;41919;42.648;23.384;2022-12-11T09:55:14;92633.28;;;16.20;54.67
56052;BME280;41919;42.648;23.384;2022-12-11T10:00:19;92625.50;;;16.10;56.60
56052;BME280;41919;42.648;23.384;2022-12-11T10:02:50;92626.94;;;16.02;57.75
56052;BME280;41919;42.648;23.384;2022-12-11T10:13:05;92624.00;;;15.60;58.97
56052;BME280;41919;42.648;23.384;2022-12-11T10:15:42;92620.88;;;15.58;58.82
56052;BME280;41919;42.648;23.384;2022-12-11T10:18:14;92621.25;;;15.71;58.70
56052;BME280;41919;42.648;23.384;2022-12-11T10:20:42;92614.47;;;15.64;59.94
56052;BME280;41919;42.648;23.384;2022-12-11T10:23:13;92567.41;;;15.39;60.31
56052;BME280;41919;42.648;23.384;2022-12-11T10:25:43;92612.63;;;15.65;59.95
56052;BME280;41919;42.648;23.384;2022-12-11T10:28:13;92630.50;;;15.68;60.30
56052;BME280;41919;42.648;23.384;2022-12-11T10:30:40;92621.25;;;15.46;62.10
56052;BME280;41919;42.648;23.384;2022-12-11T10:33:13;92633.75;;;15.36;63.82
56052;BME280;41919;42.648;23.384;2022-12-11T10:35:52;92624.91;;;15.26;64.83
56052;BME280;41919;42.648;23.384;2022-12-11T10:38:28;92632.41;;;15.38;64.99
56052;BME280;41919;42.648;23.384;2022-12-11T10:40:58;92608.81;;;15.52;64.63
56052;BME280;41919;42.648;23.384;2022-12-11T10:43:37;92613.31;;;15.76;63.51
56052;BME280;41919;42.648;23.384;2022-12-11T10:46:04;92569.56;;;15.56;62.52
56052;BME280;41919;42.648;23.384;2022-12-11T10:48:30;92599.81;;;16.01;61.03
56052;BME280;41919;42.648;23.384;2022-12-11T10:50:57;92596.53;;;16.10;59.24
56052;BME280;41919;42.648;23.384;2022-12-11T10:53:23;92590.13;;;16.16;59.21
56052;BME280;41919;42.648;23.384;2022-12-11T10:55:49;92589.84;;;16.17;58.66
56052;BME280;41919;42.648;23.384;2022-12-11T10:58:18;92587.63;;;16.05;57.04
56052;BME280;41919;42.648;23.384;2022-12-11T11:00:44;92587.63;;;16.05;57.01
56052;BME280;41919;42.648;23.384;2022-12-11T11:03:20;92588.63;;;16.10;57.19
56052;BME280;41919;42.648;23.384;2022-12-11T11:05:46;92581.66;;;16.00;57.13
56052;BME280;41919;42.648;23.384;2022-12-11T11:08:19;92580.06;;;15.99;57.52
56052;BME280;41919;42.648;23.384;2022-12-11T11:10:49;92576.38;;;16.00;57.88
56052;BME280;41919;42.648;23.384;2022-12-11T11:13:14;92576.00;;;16.06;56.59
56052;BME280;41919;42.648;23.384;2022-12-11T11:15:39;92568.38;;;16.05;56.50
56052;BME280;41919;42.648;23.384;2022-12-11T11:18:11;92571.94;;;16.14;56.18
56052;BME280;41919;42.648;23.384;2022-12-11T11:20:43;92572.75;;;16.15;56.47
56052;BME280;41919;42.648;23.384;2022-12-11T11:23:12;92569.41;;;16.09;56.66
56052;BME280;41919;42.648;23.384;2022-12-11T11:25:38;92575.63;;;15.99;58.54
56052;BME280;41919;42.648;23.384;2022-12-11T11:28:05;92582.19;;;15.78;59.71
56052;BME280;41919;42.648;23.384;2022-12-11T11:32:58;92581.72;;;15.52;63.05
56052;BME280;41919;42.648;23.384;2022-12-11T11:35:27;92574.59;;;15.52;63.67
56052;BME280;41919;42.648;23.384;2022-12-11T11:37:56;92567.38;;;15.63;63.61
56052;BME280;41919;42.648;23.384;2022-12-11T11:40:33;92569.63;;;15.75;63.24
56052;BME280;41919;42.648;23.384;2022-12-11T11:45:56;92578.03;;;15.77;62.74
56052;BME280;41919;42.648;23.384;2022-12-11T11:51:11;92573.63;;;15.67;63.75
56052;BME280;41919;42.648;23.384;2022-12-11T11:53:38;92567.63;;;15.42;62.92
56052;BME280;41919;42.648;23.384;2022-12-11T11:56:19;92561.44;;;15.52;63.60
56052;BME280;41919;42.648;23.384;2022-12-11T12:01:20;92552.50;;;15.29;64.88
56052;BME280;41919;42.648;23.384;2022-12-11T12:03:46;92558.09;;;15.22;64.34
56052;BME280;41919;42.648;23.384;2022-12-11T12:16:00;92551.34;;;15.59;65.93
56052;BME280;41919;42.648;23.384;2022-12-11T12:26:05;92543.38;;;15.64;67.20
56052;BME280;41919;42.648;23.384;2022-12-11T12:36:45;92513.47;;;14.69;70.25
56052;BME280;41919;42.648;23.384;2022-12-11T12:39:26;92560.31;;;14.62;73.07
56052;BME280;41919;42.648;23.384;2022-12-11T12:47:30;92574.84;;;13.10;71.47
56052;BME280;41919;42.648;23.384;2022-12-11T12:49:57;92589.59;;;12.65;73.40
56052;BME280;41919;42.648;23.384;2022-12-11T12:52:33;92586.22;;;12.28;74.59
56052;BME280;41919;42.648;23.384;2022-12-11T12:55:00;92580.38;;;11.80;74.94
56052;BME280;41919;42.648;23.384;2022-12-11T12:57:56;92596.47;;;11.26;77.54
56052;BME280;41919;42.648;23.384;2022-12-11T13:02:50;92634.41;;;10.91;79.89
56052;BME280;41919;42.648;23.384;2022-12-11T13:05:31;92649.81;;;10.82;80.65
56052;BME280;41919;42.648;23.384;2022-12-11T13:08:00;92647.81;;;10.57;81.89
56052;BME280;41919;42.648;23.384;2022-12-11T13:12:51;92659.75;;;10.20;83.07
56052;BME280;41919;42.648;23.384;2022-12-11T13:15:34;92657.56;;;10.12;83.51
56052;BME280;41919;42.648;23.384;2022-12-11T13:18:01;92656.47;;;10.08;84.41
56052;BME280;41919;42.648;23.384;2022-12-11T13:20:28;92675.59;;;9.87;83.95
56052;BME280;41919;42.648;23.384;2022-12-11T13:25:32;92683.34;;;9.37;85.35
56052;BME280;41919;42.648;23.384;2022-12-11T13:28:29;92676.00;;;9.12;86.94
56052;BME280;41919;42.648;23.384;2022-12-11T13:31:06;92697.72;;;9.01;86.88
56052;BME280;41919;42.648;23.384;2022-12-11T13:33:36;92704.72;;;8.61;89.23
56052;BME280;41919;42.648;23.384;2022-12-11T13:36:03;92717.00;;;8.49;88.46
56052;BME280;41919;42.648;23.384;2022-12-11T13:38:34;92714.03;;;8.29;88.88
56052;BME280;41919;42.648;23.384;2022-12-11T13:41:00;92727.66;;;8.19;90.03
56052;BME280;41919;42.648;23.384;2022-12-11T13:43:29;92744.50;;;7.88;90.45
56052;BME280;41919;42.648;23.384;2022-12-11T13:46:00;92752.75;;;7.96;90.12
56052;BME280;41919;42.648;23.384;2022-12-11T13:48:26;92767.91;;;7.88;90.53
56052;BME280;41919;42.648;23.384;2022-12-11T13:50:53;92757.94;;;7.96;89.54
56052;BME280;41919;42.648;23.384;2022-12-11T13:53:19;92772.88;;;7.89;88.20
56052;BME280;41919;42.648;23.384;2022-12-11T13:55:45;92776.84;;;7.92;88.33
56052;BME280;41919;42.648;23.384;2022-12-11T13:58:15;92792.34;;;7.87;88.68
56052;BME280;41919;42.648;23.384;2022-12-11T14:00:41;92784.91;;;7.66;88.41
56052;BME280;41919;42.648;23.384;2022-12-11T14:03:06;92779.81;;;7.83;88.27
56052;BME280;41919;42.648;23.384;2022-12-11T14:05:32;92811.94;;;7.77;87.50
56052;BME280;41919;42.648;23.384;2022-12-11T14:07:58;92810.91;;;7.66;87.14
56052;BME280;41919;42.648;23.384;2022-12-11T14:10:26;92826.19;;;7.51;87.07
56052;BME280;41919;42.648;23.384;2022-12-11T14:15:17;92828.34;;;7.54;85.19
56052;BME280;41919;42.648;23.384;2022-12-11T14:17:43;92838.41;;;7.51;85.36
56052;BME280;41919;42.648;23.384;2022-12-11T14:20:16;92831.84;;;7.36;86.04
56052;BME280;41919;42.648;23.384;2022-12-11T14:22:42;92838.84;;;7.36;86.98
56052;BME280;41919;42.648;23.384;2022-12-11T14:25:15;92840.88;;;7.22;86.95
56052;BME280;41919;42.648;23.384;2022-12-11T14:27:46;92849.06;;;6.95;86.72